createdAt,value
2018-09-06T00:02:44.527Z,16.20
2018-09-06T00:07:47.730Z,16.17
2018-09-06T00:12:50.960Z,16.09
2018-09-06T00:17:54.122Z,16.02
2018-09-06T00:22:58.099Z,15.97
2018-09-06T00:28:01.345Z,15.91
2018-09-06T00:33:04.837Z,15.84
2018-09-06T00:38:08.147Z,15.74
2018-09-06T00:43:11.550Z,15.64
2018-09-06T00:48:14.852Z,15.49
2018-09-06T00:53:18.085Z,15.39
2018-09-06T00:58:21.292Z,15.36
2018-09-06T01:03:24.657Z,15.30
2018-09-06T01:08:27.859Z,15.28
2018-09-06T01:13:31.150Z,15.22
2018-09-06T01:18:34.399Z,15.38
2018-09-06T01:23:37.647Z,15.40
2018-09-06T01:28:41.019Z,15.45
2018-09-06T01:33:44.248Z,15.50
2018-09-06T01:38:47.508Z,15.49
2018-09-06T01:43:50.740Z,15.41
2018-09-06T01:48:53.939Z,15.50
2018-09-06T01:53:57.116Z,15.54
2018-09-06T01:59:00.341Z,15.57
2018-09-06T02:04:03.638Z,15.56
2018-09-06T02:09:07.785Z,15.50
2018-09-06T02:14:11.163Z,15.50
2018-09-06T02:19:14.399Z,15.39
2018-09-06T02:24:17.653Z,15.32
2018-09-06T02:29:20.819Z,15.34
2018-09-06T02:34:24.070Z,15.28
2018-09-06T02:39:27.341Z,15.28
2018-09-06T02:44:30.739Z,15.26
2018-09-06T02:49:34.092Z,15.29
2018-09-06T02:54:37.316Z,15.23
2018-09-06T02:59:40.948Z,15.20
2018-09-06T03:04:44.200Z,15.19
2018-09-06T03:09:47.358Z,15.11
2018-09-06T03:14:50.512Z,15.06
2018-09-06T03:19:53.858Z,14.98
2018-09-06T03:24:57.115Z,14.94
2018-09-06T03:30:00.590Z,14.84
2018-09-06T03:35:03.876Z,14.84
2018-09-06T03:40:07.329Z,14.72
2018-09-06T03:45:10.678Z,14.62
2018-09-06T03:50:14.053Z,14.46
2018-09-06T03:55:17.353Z,14.36
2018-09-06T04:00:21.393Z,14.32
2018-09-06T04:05:24.801Z,14.18
2018-09-06T04:10:28.380Z,14.20
2018-09-06T04:15:31.584Z,14.21
2018-09-06T04:20:34.845Z,14.23
2018-09-06T04:25:39.775Z,14.28
2018-09-06T04:30:43.626Z,14.26
2018-09-06T04:35:46.905Z,14.31
2018-09-06T04:40:50.104Z,14.44
2018-09-06T04:45:53.325Z,14.48
2018-09-06T04:50:56.490Z,14.55
2018-09-06T04:55:59.648Z,14.63
2018-09-06T05:01:02.975Z,14.63
2018-09-06T05:06:06.264Z,14.70
2018-09-06T05:11:09.572Z,14.85
2018-09-06T05:16:12.783Z,14.95
2018-09-06T05:21:16.145Z,15.08
2018-09-06T05:26:19.685Z,15.20
2018-09-06T05:31:23.661Z,15.29
2018-09-06T05:36:26.857Z,15.42
2018-09-06T05:41:30.062Z,15.63
2018-09-06T05:46:33.241Z,15.76
2018-09-06T05:51:36.476Z,16.11
2018-09-06T05:56:39.806Z,16.57
2018-09-06T06:01:44.160Z,17.15
2018-09-06T06:06:49.651Z,17.74
2018-09-06T06:11:53.116Z,18.47
2018-09-06T06:16:56.295Z,19.20
2018-09-06T06:21:59.525Z,19.90
2018-09-06T06:27:02.693Z,20.23
2018-09-06T06:32:05.979Z,20.42
2018-09-06T06:37:09.180Z,19.87
2018-09-06T06:42:12.434Z,19.45
2018-09-06T06:47:15.627Z,19.22
2018-09-06T06:52:18.961Z,19.17
2018-09-06T06:57:22.178Z,19.48
2018-09-06T07:02:25.450Z,19.50
2018-09-06T07:07:28.760Z,19.70
2018-09-06T07:12:32.007Z,19.96
2018-09-06T07:17:36.109Z,19.84
2018-09-06T07:22:39.350Z,19.90
2018-09-06T07:27:42.735Z,19.88
2018-09-06T07:32:45.979Z,19.97
2018-09-06T07:37:49.163Z,20.05
2018-09-06T07:42:53.343Z,20.06
2018-09-06T07:47:56.612Z,20.17
2018-09-06T07:52:59.805Z,20.30
2018-09-06T07:58:03.076Z,20.52
2018-09-06T08:03:08.434Z,20.57
2018-09-06T08:08:12.679Z,20.76
2018-09-06T08:13:16.967Z,20.96
2018-09-06T08:18:20.100Z,20.98
2018-09-06T08:23:23.582Z,21.05
2018-09-06T08:28:26.894Z,21.38
2018-09-06T08:33:31.051Z,21.38
2018-09-06T08:38:34.305Z,21.71
2018-09-06T08:43:37.437Z,21.82
2018-09-06T08:48:40.654Z,21.50
2018-09-06T08:53:43.928Z,21.64
2018-09-06T08:58:47.058Z,22.01
2018-09-06T09:03:50.528Z,22.48
2018-09-06T09:08:53.907Z,22.77
2018-09-06T09:13:57.241Z,23.04
2018-09-06T09:19:00.467Z,23.47
2018-09-06T09:24:03.883Z,25.62
2018-09-06T09:29:07.128Z,28.08
2018-09-06T09:34:10.371Z,28.67
2018-09-06T09:39:13.621Z,29.72
2018-09-06T09:44:17.727Z,30.66
2018-09-06T09:49:21.100Z,30.38
2018-09-06T09:54:24.489Z,29.43
2018-09-06T09:59:27.824Z,30.35
2018-09-06T10:04:31.068Z,28.64
2018-09-06T10:09:35.082Z,29.39
2018-09-06T10:14:38.338Z,29.45
2018-09-06T10:19:41.558Z,30.01
2018-09-06T10:24:44.962Z,30.54
2018-09-06T10:29:48.194Z,30.34
2018-09-06T10:34:51.498Z,30.42
2018-09-06T10:39:54.771Z,30.43
2018-09-06T10:44:58.113Z,30.52
2018-09-06T10:50:01.373Z,30.20
2018-09-06T10:55:04.729Z,30.25
2018-09-06T11:00:07.970Z,29.17
2018-09-06T11:05:11.273Z,29.16
2018-09-06T11:10:44.793Z,30.55
2018-09-06T11:15:48.111Z,31.10
2018-09-06T11:20:51.321Z,29.49
2018-09-06T11:25:54.501Z,28.95
2018-09-06T11:30:57.687Z,29.26
2018-09-06T11:36:00.887Z,27.48
2018-09-06T11:41:04.129Z,26.15
2018-09-06T11:46:07.638Z,25.88
2018-09-06T11:51:10.985Z,25.76
2018-09-06T11:56:14.279Z,25.43
2018-09-06T12:01:17.631Z,25.76
2018-09-06T12:06:20.816Z,25.84
2018-09-06T12:11:24.034Z,26.11
2018-09-06T12:16:27.428Z,26.95
2018-09-06T12:21:30.647Z,26.42
2018-09-06T12:26:33.922Z,27.77
2018-09-06T12:31:37.188Z,27.75
2018-09-06T12:36:40.385Z,26.00
2018-09-06T12:41:43.635Z,25.66
2018-09-06T12:46:46.896Z,25.93
2018-09-06T12:51:50.852Z,26.74
2018-09-06T12:56:54.305Z,27.65
2018-09-06T13:01:57.524Z,28.14
2018-09-06T13:07:00.767Z,29.20
2018-09-06T13:12:04.192Z,28.82
2018-09-06T13:17:07.396Z,29.35
2018-09-06T13:22:10.704Z,29.40
2018-09-06T13:27:13.945Z,29.54
2018-09-06T13:32:17.155Z,29.74
2018-09-06T13:37:20.417Z,29.27
2018-09-06T13:42:23.681Z,29.03
2018-09-06T13:47:26.852Z,28.62
2018-09-06T13:52:30.094Z,28.34
2018-09-06T13:57:33.342Z,27.07
2018-09-06T14:02:36.557Z,26.72
2018-09-06T14:07:39.732Z,27.76
2018-09-06T14:12:42.953Z,27.16
2018-09-06T14:17:46.197Z,27.20
2018-09-06T14:22:49.459Z,27.69
2018-09-06T14:27:52.804Z,27.89
2018-09-06T14:32:56.911Z,26.63
2018-09-06T14:38:00.094Z,26.83
2018-09-06T14:43:03.300Z,28.49
2018-09-06T14:48:06.936Z,27.98
2018-09-06T14:53:10.129Z,27.85
2018-09-06T14:58:14.440Z,27.54
2018-09-06T15:03:17.793Z,27.74
2018-09-06T15:08:21.163Z,28.04
2018-09-06T15:13:24.585Z,28.05
2018-09-06T15:18:28.961Z,27.72
2018-09-06T15:23:32.172Z,27.50
2018-09-06T15:28:35.324Z,27.53
2018-09-06T15:33:38.637Z,27.07
2018-09-06T15:38:41.890Z,26.57
2018-09-06T15:43:45.057Z,26.66
2018-09-06T15:48:48.261Z,26.75
2018-09-06T15:53:51.543Z,26.30
2018-09-06T15:58:54.774Z,25.72
2018-09-06T16:03:58.112Z,25.19
2018-09-06T16:09:01.366Z,25.00
2018-09-06T16:14:04.622Z,24.77
2018-09-06T16:19:07.857Z,24.43
2018-09-06T16:24:11.303Z,24.16
2018-09-06T16:29:14.464Z,23.97
2018-09-06T16:34:17.576Z,23.83
2018-09-06T16:39:20.734Z,23.80
2018-09-06T16:44:24.043Z,23.64
2018-09-06T16:49:27.288Z,23.51
2018-09-06T16:54:30.453Z,23.39
2018-09-06T16:59:33.669Z,23.19
2018-09-06T17:04:36.886Z,23.07
2018-09-06T17:09:40.170Z,23.02
2018-09-06T17:14:43.921Z,22.96
2018-09-06T17:19:47.165Z,22.86
2018-09-06T17:24:50.548Z,22.64
2018-09-06T17:29:55.282Z,22.40
2018-09-06T17:34:59.105Z,22.21
2018-09-06T17:40:03.053Z,21.99
2018-09-06T17:45:06.339Z,21.90
2018-09-06T17:50:09.518Z,21.80
2018-09-06T17:55:12.966Z,21.74
2018-09-06T18:00:16.202Z,21.49
2018-09-06T18:05:19.806Z,21.34
2018-09-06T18:10:23.236Z,21.28
2018-09-06T18:15:26.547Z,21.02
2018-09-06T18:20:29.752Z,20.96
2018-09-06T18:25:33.066Z,20.94
2018-09-06T18:30:36.324Z,20.76
2018-09-06T18:35:39.632Z,20.67
2018-09-06T18:40:42.868Z,20.61
2018-09-06T18:45:46.099Z,20.60
2018-09-06T18:50:49.723Z,20.48
2018-09-06T18:55:53.223Z,20.35
2018-09-06T19:00:58.128Z,20.18
2018-09-06T19:06:01.464Z,20.01
2018-09-06T19:11:04.706Z,19.90
2018-09-06T19:16:08.051Z,19.78
2018-09-06T19:21:11.415Z,19.69
2018-09-06T19:26:14.912Z,19.65
2018-09-06T19:31:18.091Z,19.60
2018-09-06T19:36:21.385Z,19.53
2018-09-06T19:41:24.903Z,19.40
2018-09-06T19:46:28.119Z,19.38
2018-09-06T19:51:31.635Z,19.40
2018-09-06T19:56:34.828Z,19.18
2018-09-06T20:01:38.054Z,19.11
2018-09-06T20:06:41.363Z,19.01
2018-09-06T20:11:44.505Z,18.92
2018-09-06T20:16:48.246Z,18.87
2018-09-06T20:21:51.725Z,18.85
2018-09-06T20:26:55.318Z,18.79
2018-09-06T20:31:58.577Z,18.67
2018-09-06T20:37:01.879Z,18.47
2018-09-06T20:42:08.372Z,18.49
2018-09-06T20:47:14.090Z,18.47
2018-09-06T20:52:20.148Z,18.32
2018-09-06T20:57:26.376Z,18.11
2018-09-06T21:02:32.177Z,18.02
2018-09-06T21:07:38.865Z,17.98
2018-09-06T21:12:45.107Z,17.88
2018-09-06T21:17:51.229Z,17.81
2018-09-06T21:22:57.726Z,17.65
2018-09-06T21:28:04.422Z,17.58
2018-09-06T21:33:07.697Z,17.61
2018-09-06T21:38:11.005Z,17.67
2018-09-06T21:43:14.406Z,17.73
2018-09-06T21:48:17.703Z,17.75
2018-09-06T21:53:20.953Z,17.79
2018-09-06T21:58:24.519Z,17.63
2018-09-06T22:03:27.830Z,17.57
2018-09-06T22:08:31.042Z,17.44
2018-09-06T22:13:34.322Z,17.27
2018-09-06T22:18:37.563Z,17.22
2018-09-06T22:23:41.185Z,17.23
2018-09-06T22:28:44.464Z,17.21
2018-09-06T22:33:47.662Z,17.01
2018-09-06T22:38:50.968Z,16.91
2018-09-06T22:43:54.282Z,16.94
2018-09-06T22:48:57.507Z,17.02
2018-09-06T22:54:00.636Z,16.88
2018-09-06T22:59:04.326Z,16.79
2018-09-06T23:04:07.681Z,16.73
2018-09-06T23:09:13.789Z,16.73
2018-09-06T23:14:17.069Z,16.74
2018-09-06T23:19:20.335Z,16.77
2018-09-06T23:24:23.706Z,16.77
2018-09-06T23:29:27.210Z,16.81
2018-09-06T23:34:30.543Z,16.75
2018-09-06T23:39:33.961Z,16.67
2018-09-06T23:44:37.198Z,16.55
2018-09-06T23:49:42.230Z,16.35
2018-09-06T23:54:45.457Z,16.23
2018-09-06T23:59:48.788Z,16.04
